Time;durP1;ratioP1;P1;durP2;ratioP2;P2;SDS_P1;SDS_P2;PMS_P1;PMS_P2;Temp;Humidity;BMP_temperature;BMP_pressure;BME280_temperature;BME280_humidity;BME280_pressure;Samples;Min_cycle;Max_cycle;Signal;HPM_P1;HPM_P2
2021/12/19 00:01:08;;;;;;;18.63;8.48;;;;;;;;;;5134235;27;20030;-74
2021/12/19 00:03:51;;;;;;;25.73;9.77;;;;;;;;;;5133532;27;20041;-73
2021/12/19 00:09:03;;;;;;;13.38;7.03;;;;;;;;;;5131789;27;20023;-74
2021/12/19 00:11:30;;;;;;;28.30;10.10;;;;;;;;;;5133255;27;20019;-73
2021/12/19 00:13:56;;;;;;;31.60;10.63;;;;;;;;;;5131378;27;20047;-74
2021/12/19 00:16:23;;;;;;;24.75;8.77;;;;;;;;;;5114065;27;20042;-74
2021/12/19 00:18:50;;;;;;;14.63;6.90;;;;;;;;;;5135203;27;20019;-74
2021/12/19 00:21:20;;;;;;;11.77;5.78;;;;;;;;;;5115895;27;20095;-74
2021/12/19 00:23:47;;;;;;;11.57;6.57;;;;;;;;;;5113115;27;20029;-74
2021/12/19 00:26:15;;;;;;;15.63;6.88;;;;;;;;;;5113089;27;20051;-73
2021/12/19 00:28:42;;;;;;;11.45;6.03;;;;;;;;;;5131125;27;20422;-74
2021/12/19 00:31:08;;;;;;;13.95;7.25;;;;;;;;;;5133857;27;20027;-74
2021/12/19 00:33:35;;;;;;;19.27;8.02;;;;;;;;;;5114481;27;20473;-74
2021/12/19 00:36:02;;;;;;;13.52;7.25;;;;;;;;;;5131529;27;20011;-73
2021/12/19 00:38:28;;;;;;;12.10;6.65;;;;;;;;;;5131106;27;20027;-74
2021/12/19 00:40:56;;;;;;;11.25;5.97;;;;;;;;;;5131210;27;20469;-74
2021/12/19 00:43:46;;;;;;;10.13;5.55;;;;;;;;;;5114486;27;20379;-74
2021/12/19 00:46:11;;;;;;;20.02;8.25;;;;;;;;;;5132402;27;20099;-74
2021/12/19 00:48:39;;;;;;;15.90;7.30;;;;;;;;;;5132823;27;20031;-73
2021/12/19 00:51:06;;;;;;;20.98;8.77;;;;;;;;;;5132266;27;20012;-74
2021/12/19 00:53:33;;;;;;;14.80;7.47;;;;;;;;;;5131208;27;20026;-74
2021/12/19 00:55:59;;;;;;;12.50;6.57;;;;;;;;;;5130913;27;20519;-74
2021/12/19 00:58:25;;;;;;;10.63;5.50;;;;;;;;;;5130504;27;20027;-74
2021/12/19 01:00:52;;;;;;;13.60;5.57;;;;;;;;;;5134395;27;20027;-74
2021/12/19 01:03:19;;;;;;;16.08;7.05;;;;;;;;;;5126641;27;20116;-74
2021/12/19 01:05:45;;;;;;;31.20;10.25;;;;;;;;;;5130624;27;20019;-73
2021/12/19 01:08:12;;;;;;;22.20;8.82;;;;;;;;;;5130649;27;20027;-74
2021/12/19 01:10:39;;;;;;;22.02;8.52;;;;;;;;;;5130909;27;20030;-74
2021/12/19 01:13:05;;;;;;;12.23;5.72;;;;;;;;;;5132312;27;20031;-73
2021/12/19 01:15:32;;;;;;;10.95;5.35;;;;;;;;;;5131723;27;20027;-74
2021/12/19 01:17:59;;;;;;;27.25;8.25;;;;;;;;;;5130403;27;20019;-74
2021/12/19 01:20:26;;;;;;;31.38;9.25;;;;;;;;;;5130227;27;20473;-74
2021/12/19 01:22:53;;;;;;;26.83;8.50;;;;;;;;;;5130409;27;20019;-74
2021/12/19 01:25:19;;;;;;;19.65;6.40;;;;;;;;;;5131106;27;20020;-74
2021/12/19 01:27:46;;;;;;;12.65;5.53;;;;;;;;;;5132878;27;20099;-73
2021/12/19 01:30:13;;;;;;;10.90;5.90;;;;;;;;;;5131799;27;20019;-74
2021/12/19 01:32:40;;;;;;;27.40;10.55;;;;;;;;;;5129454;27;20492;-73
2021/12/19 01:35:07;;;;;;;14.32;6.50;;;;;;;;;;5130299;27;20026;-74
2021/12/19 01:37:33;;;;;;;10.93;5.28;;;;;;;;;;5111798;27;20408;-74
2021/12/19 01:40:00;;;;;;;9.13;5.20;;;;;;;;;;5132649;27;20077;-74
2021/12/19 01:42:33;;;;;;;9.00;4.90;;;;;;;;;;5130564;27;20038;-74
2021/12/19 01:45:00;;;;;;;9.45;5.05;;;;;;;;;;5129747;27;20500;-73
2021/12/19 01:47:26;;;;;;;8.23;4.55;;;;;;;;;;5130298;27;20023;-74
2021/12/19 01:49:53;;;;;;;7.95;4.63;;;;;;;;;;5129801;27;20037;-73
2021/12/19 01:52:19;;;;;;;8.25;4.60;;;;;;;;;;5130588;27;20034;-74
2021/12/19 01:54:46;;;;;;;16.00;7.18;;;;;;;;;;5132695;27;20431;-74
2021/12/19 01:57:12;;;;;;;30.80;12.48;;;;;;;;;;5129457;27;20597;-73
2021/12/19 01:59:39;;;;;;;26.13;10.48;;;;;;;;;;5129824;27;20041;-74
2021/12/19 02:02:05;;;;;;;11.55;5.70;;;;;;;;;;5111562;27;20039;-73
2021/12/19 02:04:33;;;;;;;10.73;5.30;;;;;;;;;;5129701;27;20384;-74
2021/12/19 02:07:00;;;;;;;16.92;7.00;;;;;;;;;;5132401;27;20034;-74
2021/12/19 02:09:26;;;;;;;8.70;4.65;;;;;;;;;;5131768;27;20034;-73
2021/12/19 02:11:53;;;;;;;7.28;4.28;;;;;;;;;;5129478;27;20015;-73
2021/12/19 02:14:19;;;;;;;7.72;4.55;;;;;;;;;;5129578;27;20419;-74
2021/12/19 02:16:46;;;;;;;9.43;4.72;;;;;;;;;;5111462;27;20023;-74
2021/12/19 02:19:13;;;;;;;8.57;5.25;;;;;;;;;;5130953;27;20027;-74
2021/12/19 02:21:40;;;;;;;11.40;5.40;;;;;;;;;;5131715;27;20027;-73
2021/12/19 02:24:10;;;;;;;17.05;6.72;;;;;;;;;;5129053;27;20027;-74
2021/12/19 02:26:38;;;;;;;13.90;5.50;;;;;;;;;;5111001;27;20016;-73
2021/12/19 02:29:04;;;;;;;6.78;4.07;;;;;;;;;;5111169;28;20035;-74
2021/12/19 02:31:31;;;;;;;8.20;4.57;;;;;;;;;;5129239;27;20515;-74
2021/12/19 02:34:06;;;;;;;10.48;4.82;;;;;;;;;;5131964;28;20042;-73
2021/12/19 02:50:10;;;;;;;14.25;6.00;;;;;;;;;;5133365;27;20026;-74
2021/12/19 02:52:37;;;;;;;8.18;4.18;;;;;;;;;;5133215;27;20030;-73
2021/12/19 02:55:03;;;;;;;7.00;4.20;;;;;;;;;;5135901;27;20037;-74
2021/12/19 02:57:30;;;;;;;7.57;4.68;;;;;;;;;;5134358;27;20016;-74
2021/12/19 02:59:56;;;;;;;8.95;4.45;;;;;;;;;;5133147;27;20033;-73
2021/12/19 03:02:23;;;;;;;6.15;3.75;;;;;;;;;;5133185;27;20027;-73
2021/12/19 03:04:53;;;;;;;7.88;4.32;;;;;;;;;;5133233;27;20396;-74
2021/12/19 03:07:19;;;;;;;6.95;4.00;;;;;;;;;;5114887;27;20092;-74
2021/12/19 03:10:20;;;;;;;6.65;4.00;;;;;;;;;;5136344;27;20024;-73
2021/12/19 03:13:02;;;;;;;6.95;4.13;;;;;;;;;;5135386;27;20052;-74
2021/12/19 03:18:14;;;;;;;6.43;4.00;;;;;;;;;;5132656;27;20030;-74
2021/12/19 03:20:42;;;;;;;10.20;4.68;;;;;;;;;;5132634;27;20039;-73
2021/12/19 03:23:10;;;;;;;10.10;4.78;;;;;;;;;;5132271;27;20031;-74
2021/12/19 03:25:36;;;;;;;13.75;5.45;;;;;;;;;;5134623;27;20015;-74
2021/12/19 03:28:04;;;;;;;9.60;5.00;;;;;;;;;;5135053;27;20384;-74
2021/12/19 03:30:30;;;;;;;7.60;3.90;;;;;;;;;;5133906;27;20034;-74
2021/12/19 03:32:57;;;;;;;6.18;3.90;;;;;;;;;;5132866;27;20027;-74
2021/12/19 03:35:24;;;;;;;7.55;4.00;;;;;;;;;;5132808;27;20023;-74
2021/12/19 03:37:52;;;;;;;7.78;3.88;;;;;;;;;;5132348;27;20504;-74
2021/12/19 03:40:35;;;;;;;7.25;3.92;;;;;;;;;;5133239;27;20016;-73
2021/12/19 03:43:22;;;;;;;8.13;4.63;;;;;;;;;;5131775;27;20508;-74
2021/12/19 03:45:49;;;;;;;9.07;5.57;;;;;;;;;;5135623;27;20050;-74
2021/12/19 03:48:16;;;;;;;11.10;5.40;;;;;;;;;;5132218;27;20031;-73
2021/12/19 03:50:45;;;;;;;7.82;4.50;;;;;;;;;;5132103;27;20025;-75
2021/12/19 03:53:12;;;;;;;5.53;4.00;;;;;;;;;;5132164;27;20016;-74
2021/12/19 03:55:40;;;;;;;6.63;4.30;;;;;;;;;;5131684;27;20024;-73
2021/12/19 03:58:06;;;;;;;8.38;3.72;;;;;;;;;;5134862;27;20026;-74
2021/12/19 04:00:32;;;;;;;5.53;3.50;;;;;;;;;;5133373;27;20037;-73
2021/12/19 04:03:00;;;;;;;6.25;3.78;;;;;;;;;;5131839;27;20080;-74
2021/12/19 04:05:27;;;;;;;6.63;3.88;;;;;;;;;;5133318;27;20023;-74
2021/12/19 04:07:54;;;;;;;5.63;3.28;;;;;;;;;;5131881;27;20079;-73
2021/12/19 04:10:21;;;;;;;5.53;3.38;;;;;;;;;;5116211;27;20019;-74
2021/12/19 04:12:48;;;;;;;7.05;3.53;;;;;;;;;;5135080;27;20023;-74
2021/12/19 04:15:15;;;;;;;5.90;3.78;;;;;;;;;;5132080;27;20025;-74
2021/12/19 04:17:41;;;;;;;6.00;3.65;;;;;;;;;;5131626;27;20022;-74
2021/12/19 04:20:08;;;;;;;6.88;3.92;;;;;;;;;;5131544;27;20027;-74
2021/12/19 04:22:34;;;;;;;5.53;3.95;;;;;;;;;;5131429;27;20024;-73
2021/12/19 04:25:01;;;;;;;5.95;3.80;;;;;;;;;;5134294;27;20037;-74
2021/12/19 04:27:29;;;;;;;7.07;3.67;;;;;;;;;;5132624;27;20514;-74
2021/12/19 04:29:55;;;;;;;5.93;3.70;;;;;;;;;;5131363;27;20374;-74
2021/12/19 04:32:31;;;;;;;7.13;3.40;;;;;;;;;;5131013;27;20030;-74
2021/12/19 04:34:57;;;;;;;6.43;3.97;;;;;;;;;;5131144;27;20041;-74
2021/12/19 04:37:54;;;;;;;7.35;3.80;;;;;;;;;;5131131;27;20019;-74
2021/12/19 04:40:25;;;;;;;4.90;3.45;;;;;;;;;;5132091;27;20027;-74
2021/12/19 04:51:17;;;;;;;8.80;5.13;;;;;;;;;;5130931;27;20473;-74
2021/12/19 04:56:46;;;;;;;6.07;3.67;;;;;;;;;;5130881;27;20394;-74
2021/12/19 05:05:18;;;;;;;5.72;3.78;;;;;;;;;;5130596;27;20442;-74
2021/12/19 05:15:44;;;;;;;12.75;4.97;;;;;;;;;;5132914;27;20083;-74
2021/12/19 05:18:11;;;;;;;10.77;5.72;;;;;;;;;;5130225;27;20033;-74
2021/12/19 05:20:40;;;;;;;11.50;6.13;;;;;;;;;;5130421;27;20396;-74
2021/12/19 05:23:22;;;;;;;15.20;7.90;;;;;;;;;;5131869;27;20035;-73
2021/12/19 05:25:49;;;;;;;10.95;6.10;;;;;;;;;;5130760;27;20011;-74
2021/12/19 05:28:15;;;;;;;9.70;5.50;;;;;;;;;;5131824;27;20019;-74
2021/12/19 05:30:41;;;;;;;9.55;5.60;;;;;;;;;;5132746;27;20024;-74
2021/12/19 05:33:08;;;;;;;9.48;5.45;;;;;;;;;;5129783;27;20393;-74
2021/12/19 05:46:24;;;;;;;8.35;4.35;;;;;;;;;;5113887;27;20016;-74
2021/12/19 05:48:51;;;;;;;7.32;4.40;;;;;;;;;;5133139;27;20035;-74
2021/12/19 05:51:17;;;;;;;8.13;4.65;;;;;;;;;;5129690;27;20514;-73
2021/12/19 05:53:44;;;;;;;9.88;4.53;;;;;;;;;;5129878;27;20023;-74
2021/12/19 05:56:10;;;;;;;8.70;4.80;;;;;;;;;;5129992;27;20030;-74
2021/12/19 05:58:36;;;;;;;7.20;4.38;;;;;;;;;;5129795;27;20393;-74
2021/12/19 06:01:03;;;;;;;9.48;5.13;;;;;;;;;;5131419;27;20027;-74
2021/12/19 06:03:29;;;;;;;10.90;7.07;;;;;;;;;;5132567;27;20041;-74
2021/12/19 06:05:56;;;;;;;10.35;6.75;;;;;;;;;;5129645;27;20021;-74
2021/12/19 06:08:22;;;;;;;8.57;4.90;;;;;;;;;;5129624;27;20024;-74
2021/12/19 06:10:48;;;;;;;7.50;4.95;;;;;;;;;;5111249;27;20026;-74
2021/12/19 06:13:15;;;;;;;8.75;4.30;;;;;;;;;;5131325;27;20033;-74
2021/12/19 06:15:41;;;;;;;14.68;9.77;;;;;;;;;;5131576;27;20034;-73
2021/12/19 06:18:08;;;;;;;12.43;5.63;;;;;;;;;;5111401;27;20083;-73
2021/12/19 06:20:34;;;;;;;21.98;11.98;;;;;;;;;;5129318;27;20029;-74
2021/12/19 06:23:01;;;;;;;13.88;5.80;;;;;;;;;;5129278;27;20038;-73
2021/12/19 06:25:27;;;;;;;7.22;4.30;;;;;;;;;;5129369;27;20408;-74
2021/12/19 06:27:54;;;;;;;7.68;4.50;;;;;;;;;;5132906;27;20033;-73
2021/12/19 06:30:21;;;;;;;7.78;4.32;;;;;;;;;;5130965;27;20023;-74
2021/12/19 06:32:47;;;;;;;8.07;4.63;;;;;;;;;;5129184;27;20488;-73
2021/12/19 06:35:21;;;;;;;9.02;5.13;;;;;;;;;;5129290;28;20029;-73
2021/12/19 06:37:49;;;;;;;8.52;5.38;;;;;;;;;;5129205;28;20033;-74
2021/12/19 06:40:17;;;;;;;8.35;4.70;;;;;;;;;;5130775;28;20019;-73
2021/12/19 06:42:44;;;;;;;7.55;4.68;;;;;;;;;;5132496;28;20439;-74
2021/12/19 06:45:12;;;;;;;14.13;6.10;;;;;;;;;;5128640;28;20047;-73
2021/12/19 06:47:38;;;;;;;12.30;6.55;;;;;;;;;;5129214;27;20416;-74
2021/12/19 06:50:05;;;;;;;10.00;5.55;;;;;;;;;;5129151;28;20037;-74
2021/12/19 06:52:31;;;;;;;8.88;5.45;;;;;;;;;;5129082;28;20452;-74
2021/12/19 06:54:58;;;;;;;8.48;5.07;;;;;;;;;;5132056;28;20023;-73
2021/12/19 06:57:24;;;;;;;10.45;6.13;;;;;;;;;;5129911;28;20398;-74
2021/12/19 06:59:51;;;;;;;13.48;6.97;;;;;;;;;;5128486;28;20011;-73
2021/12/19 07:02:17;;;;;;;14.25;7.68;;;;;;;;;;5128901;28;20028;-73
2021/12/19 07:04:44;;;;;;;12.57;7.00;;;;;;;;;;5128908;28;20473;-73
2021/12/19 07:07:11;;;;;;;10.55;5.93;;;;;;;;;;5130856;28;20027;-74
2021/12/19 07:09:38;;;;;;;9.60;5.13;;;;;;;;;;5131078;28;20031;-74
2021/12/19 07:12:05;;;;;;;9.63;5.50;;;;;;;;;;5128877;28;20423;-74
2021/12/19 07:14:31;;;;;;;12.77;5.72;;;;;;;;;;5128556;28;20396;-74
2021/12/19 07:16:57;;;;;;;10.88;5.82;;;;;;;;;;5110661;28;20035;-74
2021/12/19 07:19:24;;;;;;;8.75;4.43;;;;;;;;;;5130881;28;20024;-74
2021/12/19 07:21:50;;;;;;;6.63;3.80;;;;;;;;;;5132407;28;20027;-74
2021/12/19 07:24:17;;;;;;;6.70;3.60;;;;;;;;;;5128924;28;20030;-73
2021/12/19 07:26:43;;;;;;;7.55;4.07;;;;;;;;;;5110604;28;20419;-74
2021/12/19 07:29:09;;;;;;;7.88;4.13;;;;;;;;;;5128456;28;20034;-74
2021/12/19 07:31:38;;;;;;;7.80;4.63;;;;;;;;;;5130305;27;20380;-73
2021/12/19 07:34:06;;;;;;;9.88;5.57;;;;;;;;;;5135042;27;20024;-74
2021/12/19 07:36:40;;;;;;;11.70;6.68;;;;;;;;;;5133638;27;20029;-74
2021/12/19 07:39:11;;;;;;;11.00;6.18;;;;;;;;;;5132657;27;20015;-74
2021/12/19 07:41:38;;;;;;;8.90;5.38;;;;;;;;;;5132312;27;20493;-74
2021/12/19 07:44:05;;;;;;;10.65;5.57;;;;;;;;;;5113370;27;20058;-73
2021/12/19 07:46:31;;;;;;;9.02;5.05;;;;;;;;;;5132663;27;20023;-74
2021/12/19 07:48:57;;;;;;;12.55;6.82;;;;;;;;;;5135262;27;20035;-73
2021/12/19 07:51:24;;;;;;;12.80;7.28;;;;;;;;;;5133185;27;20019;-74
2021/12/19 07:53:50;;;;;;;13.98;7.65;;;;;;;;;;5132405;27;20019;-74
2021/12/19 07:56:16;;;;;;;15.27;8.70;;;;;;;;;;5132424;27;20023;-74
2021/12/19 07:58:43;;;;;;;17.30;9.45;;;;;;;;;;5133504;27;20023;-74
2021/12/19 08:01:09;;;;;;;25.88;12.65;;;;;;;;;;5134319;27;20019;-74
2021/12/19 08:03:36;;;;;;;18.98;11.50;;;;;;;;;;5133581;27;20042;-74
2021/12/19 08:06:02;;;;;;;19.83;10.70;;;;;;;;;;5113687;27;20030;-74
2021/12/19 08:08:32;;;;;;;14.60;8.55;;;;;;;;;;5113559;27;20019;-74
2021/12/19 08:13:44;;;;;;;13.63;5.85;;;;;;;;;;5131272;27;20500;-74
2021/12/19 08:16:10;;;;;;;10.10;6.07;;;;;;;;;;5133980;27;20035;-74
2021/12/19 08:18:36;;;;;;;12.02;7.90;;;;;;;;;;5133408;27;20027;-74
2021/12/19 08:21:03;;;;;;;12.20;8.48;;;;;;;;;;5131373;27;20023;-74
2021/12/19 08:23:29;;;;;;;17.63;10.55;;;;;;;;;;5131666;27;20015;-74
2021/12/19 08:25:56;;;;;;;20.50;10.52;;;;;;;;;;5131566;27;20023;-74
2021/12/19 08:28:22;;;;;;;21.50;14.07;;;;;;;;;;5115182;27;20025;-74
2021/12/19 08:30:48;;;;;;;22.92;10.77;;;;;;;;;;5134774;27;20023;-74
2021/12/19 08:33:15;;;;;;;16.63;10.30;;;;;;;;;;5131253;27;20035;-74
2021/12/19 08:35:41;;;;;;;14.40;8.70;;;;;;;;;;5131405;27;20014;-74
2021/12/19 08:38:08;;;;;;;14.23;8.32;;;;;;;;;;5132844;27;20045;-74
2021/12/19 08:40:34;;;;;;;16.02;7.15;;;;;;;;;;5130853;27;20016;-73
2021/12/19 08:43:01;;;;;;;9.32;5.47;;;;;;;;;;5133684;27;20035;-74
2021/12/19 08:45:28;;;;;;;12.68;5.55;;;;;;;;;;5133639;27;20037;-74
2021/12/19 08:47:54;;;;;;;7.03;4.47;;;;;;;;;;5131357;27;20023;-74
2021/12/19 08:50:22;;;;;;;7.10;4.80;;;;;;;;;;5113021;27;20019;-74
2021/12/19 08:52:49;;;;;;;6.93;4.70;;;;;;;;;;5131070;27;20396;-73
2021/12/19 08:55:15;;;;;;;7.43;4.68;;;;;;;;;;5132046;27;20027;-74
2021/12/19 08:57:41;;;;;;;6.63;4.22;;;;;;;;;;5133149;27;20023;-74
2021/12/19 09:00:13;;;;;;;4.88;4.05;;;;;;;;;;5130981;27;20027;-73
2021/12/19 09:02:44;;;;;;;5.55;4.10;;;;;;;;;;5112381;27;20038;-73
2021/12/19 09:05:11;;;;;;;7.57;3.97;;;;;;;;;;5130711;27;20108;-73
2021/12/19 09:07:37;;;;;;;5.53;3.97;;;;;;;;;;5130876;27;20024;-73
2021/12/19 09:10:05;;;;;;;6.15;4.13;;;;;;;;;;5132647;27;20030;-73
2021/12/19 09:12:31;;;;;;;5.65;4.40;;;;;;;;;;5113541;27;20027;-73
2021/12/19 09:14:57;;;;;;;6.55;4.43;;;;;;;;;;5130615;27;20095;-73
2021/12/19 09:17:24;;;;;;;5.80;4.13;;;;;;;;;;5132154;27;20439;-73
2021/12/19 09:19:51;;;;;;;7.20;4.80;;;;;;;;;;5130457;27;20052;-73
2021/12/19 09:22:17;;;;;;;9.23;4.97;;;;;;;;;;5131621;27;20094;-73
2021/12/19 09:24:44;;;;;;;9.10;4.88;;;;;;;;;;5132705;27;20033;-73
2021/12/19 09:27:10;;;;;;;7.90;4.68;;;;;;;;;;5130156;27;20023;-73
2021/12/19 09:29:36;;;;;;;8.68;4.30;;;;;;;;;;5130386;27;20426;-73
2021/12/19 09:32:03;;;;;;;4.88;3.80;;;;;;;;;;5129976;27;20019;-73
2021/12/19 09:34:30;;;;;;;5.70;4.20;;;;;;;;;;5111828;27;20027;-73
2021/12/19 09:36:57;;;;;;;5.72;3.80;;;;;;;;;;5133664;27;20017;-73
2021/12/19 09:39:24;;;;;;;5.78;3.92;;;;;;;;;;5131132;27;20075;-73
2021/12/19 09:41:56;;;;;;;4.70;3.55;;;;;;;;;;5129632;27;20358;-73
2021/12/19 09:44:22;;;;;;;7.20;4.13;;;;;;;;;;5111494;27;20136;-74
2021/12/19 09:46:49;;;;;;;5.90;4.30;;;;;;;;;;5130060;27;20016;-73
2021/12/19 09:49:17;;;;;;;6.55;4.60;;;;;;;;;;5131141;27;20400;-73
2021/12/19 09:51:45;;;;;;;6.03;4.43;;;;;;;;;;5132306;27;20046;-74
2021/12/19 09:54:12;;;;;;;17.40;11.30;;;;;;;;;;5129376;27;20031;-73
2021/12/19 09:56:39;;;;;;;25.98;14.77;;;;;;;;;;5131220;27;20019;-73
2021/12/19 09:59:10;;;;;;;20.70;11.45;;;;;;;;;;5129665;27;20027;-73
2021/12/19 10:01:36;;;;;;;20.92;12.25;;;;;;;;;;5130073;27;20027;-73
2021/12/19 10:04:03;;;;;;;17.42;10.93;;;;;;;;;;5131967;27;20043;-73
2021/12/19 10:06:30;;;;;;;10.73;7.18;;;;;;;;;;5130757;27;20430;-73
2021/12/19 10:09:09;;;;;;;11.52;7.32;;;;;;;;;;5129337;27;20030;-73
2021/12/19 10:12:12;;;;;;;13.45;7.43;;;;;;;;;;5129663;27;20030;-73
2021/12/19 10:14:38;;;;;;;10.73;7.13;;;;;;;;;;5129546;27;20026;-73
2021/12/19 10:17:16;;;;;;;9.50;6.35;;;;;;;;;;5129488;27;20023;-74
2021/12/19 10:19:43;;;;;;;10.32;6.95;;;;;;;;;;5129393;27;20019;-73
2021/12/19 10:22:24;;;;;;;11.10;6.93;;;;;;;;;;5131123;27;20058;-73
2021/12/19 10:24:51;;;;;;;;;;;;;;;;;;5133484;27;20297;-73
2021/12/19 10:27:37;;;;;;;10.35;6.25;;;;;;;;;;5129316;27;20320;-73
2021/12/19 10:30:09;;;;;;;9.40;5.85;;;;;;;;;;5129161;27;20027;-73
2021/12/19 10:32:35;;;;;;;8.27;5.78;;;;;;;;;;5129519;27;20015;-73
2021/12/19 10:35:31;;;;;;;7.88;5.53;;;;;;;;;;5130765;27;20067;-73
2021/12/19 10:37:58;;;;;;;9.57;5.18;;;;;;;;;;5107213;28;20509;-73
2021/12/19 10:40:25;;;;;;;7.15;5.22;;;;;;;;;;5129621;27;20026;-74
2021/12/19 10:42:56;;;;;;;9.18;5.95;;;;;;;;;;5132649;28;20025;-73
2021/12/19 10:45:30;;;;;;;7.68;5.55;;;;;;;;;;5129771;28;20035;-73
2021/12/19 10:48:10;;;;;;;7.53;5.43;;;;;;;;;;5128804;28;20024;-73
2021/12/19 10:50:47;;;;;;;7.72;5.50;;;;;;;;;;5129080;28;20385;-73
2021/12/19 10:53:15;;;;;;;7.88;4.95;;;;;;;;;;5128554;28;20435;-73
2021/12/19 10:55:43;;;;;;;8.15;4.93;;;;;;;;;;5129196;28;20012;-73
2021/12/19 10:58:28;;;;;;;9.10;5.45;;;;;;;;;;5131295;28;20034;-73
2021/12/19 11:01:14;;;;;;;6.75;5.38;;;;;;;;;;5128498;28;20092;-73
2021/12/19 11:03:40;;;;;;;6.88;5.28;;;;;;;;;;5131140;28;20050;-73
2021/12/19 11:06:18;;;;;;;7.95;5.55;;;;;;;;;;5129465;27;20015;-73
2021/12/19 11:08:45;;;;;;;7.35;4.65;;;;;;;;;;5133085;27;20020;-73
2021/12/19 11:11:13;;;;;;;11.88;5.30;;;;;;;;;;5114523;27;20031;-73
2021/12/19 11:13:39;;;;;;;11.70;5.55;;;;;;;;;;5134448;27;20519;-72
2021/12/19 11:16:06;;;;;;;7.97;5.40;;;;;;;;;;5135353;27;20422;-72
2021/12/19 11:18:32;;;;;;;9.07;5.50;;;;;;;;;;5133887;27;20053;-72
2021/12/19 11:20:58;;;;;;;8.35;6.05;;;;;;;;;;5132809;27;20007;-71
2021/12/19 11:23:26;;;;;;;10.07;5.88;;;;;;;;;;5132765;27;20039;-72
2021/12/19 11:25:54;;;;;;;10.95;6.43;;;;;;;;;;5132779;27;20376;-73
2021/12/19 11:28:21;;;;;;;10.63;7.30;;;;;;;;;;5133400;27;20026;-73
2021/12/19 11:30:48;;;;;;;12.32;6.47;;;;;;;;;;5135574;27;20023;-73
2021/12/19 11:33:17;;;;;;;10.93;6.78;;;;;;;;;;5132523;27;20028;-73
2021/12/19 11:35:47;;;;;;;8.45;6.32;;;;;;;;;;5132191;27;20024;-73
2021/12/19 11:38:18;;;;;;;10.10;6.15;;;;;;;;;;5132549;27;20015;-73
2021/12/19 11:40:44;;;;;;;8.50;6.43;;;;;;;;;;5132789;27;20054;-73
2021/12/19 11:43:11;;;;;;;8.43;5.53;;;;;;;;;;5134195;27;20064;-73
2021/12/19 11:45:42;;;;;;;8.52;5.85;;;;;;;;;;5134183;27;20023;-73
2021/12/19 11:48:17;;;;;;;10.25;4.97;;;;;;;;;;5114001;27;20028;-73
2021/12/19 11:50:52;;;;;;;10.05;5.43;;;;;;;;;;5132191;27;20020;-73
2021/12/19 11:53:19;;;;;;;8.30;5.32;;;;;;;;;;5133797;27;20034;-73
2021/12/19 11:55:46;;;;;;;7.82;5.47;;;;;;;;;;5132511;27;20020;-73
2021/12/19 11:58:12;;;;;;;11.27;5.70;;;;;;;;;;5134555;27;20034;-73
2021/12/19 12:00:39;;;;;;;8.40;5.53;;;;;;;;;;5133903;27;20031;-73
2021/12/19 12:03:14;;;;;;;8.68;6.03;;;;;;;;;;5131794;27;20031;-73
2021/12/19 12:06:10;;;;;;;7.78;5.45;;;;;;;;;;5131453;27;20030;-73
2021/12/19 12:08:36;;;;;;;10.18;6.00;;;;;;;;;;5113240;27;20037;-73
2021/12/19 12:11:05;;;;;;;12.80;7.15;;;;;;;;;;5132114;27;20023;-73
2021/12/19 12:13:33;;;;;;;10.43;6.68;;;;;;;;;;5132015;27;20020;-71
2021/12/19 12:18:40;;;;;;;;;;;;;;;;;;5133276;27;20046;-73
2021/12/19 12:21:51;;;;;;;14.10;8.25;;;;;;;;;;5131623;27;19903;-73
2021/12/19 12:24:14;;;;;;;12.00;7.80;;;;;;;;;;5128394;27;20062;-73
2021/12/19 12:26:55;;;;;;;18.40;10.98;;;;;;;;;;5131503;27;20041;-72
2021/12/19 12:29:21;;;;;;;;;;;;;;;;;;5132224;27;20023;-73
2021/12/19 12:31:48;;;;;;;14.40;9.02;;;;;;;;;;5133290;27;19912;-72
2021/12/19 12:34:16;;;;;;;12.90;8.13;;;;;;;;;;5132632;27;20030;-73
2021/12/19 12:36:43;;;;;;;11.70;7.35;;;;;;;;;;5133729;27;20061;-72
2021/12/19 12:39:20;;;;;;;11.82;7.45;;;;;;;;;;5131562;27;20015;-73
2021/12/19 12:44:15;;;;;;;10.18;7.10;;;;;;;;;;5130992;27;20045;-73
2021/12/19 12:46:44;;;;;;;10.82;7.82;;;;;;;;;;5131275;27;20030;-73
2021/12/19 12:49:11;;;;;;;10.73;7.32;;;;;;;;;;5132826;27;20512;-73
2021/12/19 12:51:41;;;;;;;10.23;6.85;;;;;;;;;;5132962;27;20023;-73
2021/12/19 12:54:20;;;;;;;10.30;7.22;;;;;;;;;;5130938;27;20019;-73
2021/12/19 12:56:50;;;;;;;10.00;7.20;;;;;;;;;;5130848;27;20022;-73
2021/12/19 12:59:38;;;;;;;10.82;6.45;;;;;;;;;;5131106;27;20025;-73
2021/12/19 13:04:45;;;;;;;8.07;6.07;;;;;;;;;;5130893;27;20023;-73
2021/12/19 13:07:16;;;;;;;10.75;5.68;;;;;;;;;;5133011;27;20035;-73
2021/12/19 13:09:43;;;;;;;10.30;5.40;;;;;;;;;;5132940;27;20485;-73
2021/12/19 13:12:20;;;;;;;8.40;5.50;;;;;;;;;;5132136;27;20075;-73
2021/12/19 13:14:50;;;;;;;8.93;5.35;;;;;;;;;;5130641;27;20023;-73
2021/12/19 13:17:17;;;;;;;9.45;6.07;;;;;;;;;;5130500;27;20026;-73
2021/12/19 13:19:44;;;;;;;10.43;5.88;;;;;;;;;;5130591;27;20030;-73
2021/12/19 13:22:24;;;;;;;7.75;5.30;;;;;;;;;;5132526;27;20031;-73
2021/12/19 13:24:51;;;;;;;8.18;5.75;;;;;;;;;;5133809;27;20358;-73
2021/12/19 13:27:21;;;;;;;6.15;5.03;;;;;;;;;;5130309;27;20019;-73
2021/12/19 13:29:58;;;;;;;7.72;4.90;;;;;;;;;;5129433;27;20019;-73
2021/12/19 13:32:33;;;;;;;10.52;5.80;;;;;;;;;;5129951;27;20019;-73
2021/12/19 13:35:00;;;;;;;7.70;5.78;;;;;;;;;;5130160;27;20023;-73
2021/12/19 13:37:31;;;;;;;7.65;5.07;;;;;;;;;;5130591;27;20042;-73
2021/12/19 13:40:08;;;;;;;8.27;5.40;;;;;;;;;;5133271;27;20139;-73
2021/12/19 13:42:57;;;;;;;8.85;6.10;;;;;;;;;;5131236;27;20295;-73
2021/12/19 13:45:36;;;;;;;7.85;5.32;;;;;;;;;;5119319;27;20061;-73
2021/12/19 13:48:04;;;;;;;8.82;6.25;;;;;;;;;;5129989;27;20023;-72
2021/12/19 13:50:32;;;;;;;9.23;6.78;;;;;;;;;;5131242;27;20063;-73
2021/12/19 13:52:58;;;;;;;8.40;6.45;;;;;;;;;;5129971;27;20025;-73
2021/12/19 13:55:25;;;;;;;12.02;7.55;;;;;;;;;;5130395;27;20492;-73
2021/12/19 13:58:03;;;;;;;8.43;6.75;;;;;;;;;;5129004;27;20019;-73
2021/12/19 14:00:32;;;;;;;7.60;6.05;;;;;;;;;;5132052;27;20493;-73
2021/12/19 14:02:58;;;;;;;11.60;6.55;;;;;;;;;;5129516;27;20042;-73
2021/12/19 14:05:33;;;;;;;10.60;6.35;;;;;;;;;;5129609;27;20026;-73
2021/12/19 14:08:00;;;;;;;10.82;7.20;;;;;;;;;;5129961;27;20019;-73
2021/12/19 14:10:26;;;;;;;10.68;7.18;;;;;;;;;;5129664;27;20022;-73
2021/12/19 14:15:28;;;;;;;12.63;8.07;;;;;;;;;;5131670;27;20045;-73
2021/12/19 14:17:55;;;;;;;12.38;7.80;;;;;;;;;;5129306;27;20027;-73
2021/12/19 14:20:36;;;;;;;10.25;7.15;;;;;;;;;;5129387;27;20384;-73
2021/12/19 14:23:16;;;;;;;13.15;7.28;;;;;;;;;;5129519;27;20039;-73
2021/12/19 14:25:42;;;;;;;10.35;7.50;;;;;;;;;;5129436;27;20019;-72
2021/12/19 14:28:17;;;;;;;21.88;7.38;;;;;;;;;;5112932;28;20031;-73
2021/12/19 14:30:54;;;;;;;11.32;7.28;;;;;;;;;;5131308;27;20027;-73
2021/12/19 14:33:31;;;;;;;10.55;6.97;;;;;;;;;;5129771;27;20031;-73
2021/12/19 14:35:58;;;;;;;13.65;8.20;;;;;;;;;;5129284;27;20030;-73
2021/12/19 14:38:24;;;;;;;11.18;6.97;;;;;;;;;;5129299;28;20156;-73
2021/12/19 14:40:50;;;;;;;12.20;8.02;;;;;;;;;;5132883;27;20023;-73
2021/12/19 14:43:20;;;;;;;14.00;8.55;;;;;;;;;;5136956;27;20050;-73
2021/12/19 14:45:51;;;;;;;12.95;9.30;;;;;;;;;;5138780;27;20050;-73
2021/12/19 14:48:19;;;;;;;;;;;;;;;;;;5136791;27;20031;-73
2021/12/19 14:50:45;;;;;;;18.42;9.52;;;;;;;;;;5136002;27;19908;-73
2021/12/19 14:53:12;;;;;;;13.40;9.38;;;;;;;;;;5117887;27;20038;-73
2021/12/19 14:55:44;;;;;;;14.30;9.43;;;;;;;;;;5136319;27;20016;-73
2021/12/19 14:58:10;;;;;;;14.85;9.45;;;;;;;;;;5137817;27;20025;-73
2021/12/19 15:00:38;;;;;;;18.02;10.63;;;;;;;;;;5137235;27;20438;-73
2021/12/19 15:03:04;;;;;;;18.65;10.30;;;;;;;;;;5135736;27;20034;-73
2021/12/19 15:05:32;;;;;;;16.77;10.65;;;;;;;;;;5135905;27;20027;-73
2021/12/19 15:08:00;;;;;;;16.42;9.98;;;;;;;;;;5137184;27;20019;-74
2021/12/19 15:10:26;;;;;;;16.45;10.77;;;;;;;;;;5117470;27;20027;-73
2021/12/19 15:12:53;;;;;;;17.80;10.85;;;;;;;;;;5139180;27;20202;-72
2021/12/19 15:15:19;;;;;;;19.27;12.02;;;;;;;;;;5135849;27;20052;-73
2021/12/19 15:17:45;;;;;;;23.40;11.85;;;;;;;;;;5135616;27;20023;-73
2021/12/19 15:20:12;;;;;;;25.20;10.82;;;;;;;;;;5135766;27;20034;-73
2021/12/19 15:22:41;;;;;;;18.65;11.55;;;;;;;;;;5136003;27;20016;-73
2021/12/19 15:25:09;;;;;;;20.75;10.77;;;;;;;;;;5138495;27;20596;-73
2021/12/19 15:27:35;;;;;;;17.23;9.88;;;;;;;;;;5136548;27;20025;-73
2021/12/19 15:30:01;;;;;;;13.88;9.25;;;;;;;;;;5135454;27;20023;-73
2021/12/19 15:32:28;;;;;;;19.08;9.70;;;;;;;;;;5135604;27;20226;-73
2021/12/19 15:34:54;;;;;;;12.68;8.27;;;;;;;;;;5135795;27;20063;-73
2021/12/19 15:37:20;;;;;;;11.32;7.45;;;;;;;;;;5136770;27;20012;-73
2021/12/19 15:39:47;;;;;;;12.10;8.00;;;;;;;;;;5138242;27;20388;-73
2021/12/19 15:42:13;;;;;;;14.95;7.68;;;;;;;;;;5135408;27;20027;-73
2021/12/19 15:44:39;;;;;;;14.52;8.23;;;;;;;;;;5135400;27;20049;-73
2021/12/19 15:47:06;;;;;;;16.30;8.82;;;;;;;;;;5136868;27;20025;-73
2021/12/19 15:49:33;;;;;;;16.70;8.73;;;;;;;;;;5135569;27;20015;-73
2021/12/19 15:52:00;;;;;;;16.25;8.82;;;;;;;;;;5118433;27;20027;-73
2021/12/19 15:54:29;;;;;;;15.30;8.63;;;;;;;;;;5133320;27;20037;-73